Cove, Arkansas
Current Conditions -  °F | °C
As of 1:55 PM on Sunday 23 Nov 2014 (Local Time) from KMEZ Reporting Station
Scattered Clouds Scattered Clouds  
Wind Chill: 68°   Ceiling: Unl
Heat Index: 68°   Visibility: 10mi
Dew Point: 59°   Wind: 6mph
Humidity: 73%   Direction: 220°SW
Pressure: 29.35"   Gusts: NA
Location:  34.44°N, 94.41°W
Report Text: KMEZ 231955Z AUTO 22005KT 10SM SCT017 SCT022 20/15 A2935 RMK AO2
Loading
Personal Weather Stations






























Interactive Weather Map New forecast layout! Learn more

10-Day Weather Forecast

Advertisements
Track Severe Weather on mobile